• Join FlightAware (Why Join?)
  • Login
  • US Flag 
04:01PM EDT


 

Airport Tracker/Info


-or-


 

Live Flight TrackerFlight Track Log ✈ N629C ✈ 07-Jun-2013 ✈ T65 - KADS

Flight Track Log - Related Links

Times and Time Zones

All times are in EDT time to prevent confusion due to time zone crossing. See the N629C flight status page for this flight to view local times or setup timezone preferences in your user account.

Time Position Orientation Groundspeed Altitude Reporting Facility
EDT Latitude Longitude Course Direction KTS MPH feet Rate Location/Type
04:27PM 26.4400 -97.2039 347° North 105 121 5,600  Level Houston Center
04:29PM 26.4747 -97.2131 347° North 101 116 6,500 720 Climbing Houston Center
04:30PM 26.5050 -97.2206 348° North 103 119 7,300 660 Climbing Houston Center
04:31PM 26.5333 -97.2283 346° North 108 124 7,900 660 Climbing Houston Center
04:32PM 26.5658 -97.2381 345° North 114 131 8,700 660 Climbing Houston Center
04:33PM 26.5975 -97.2383 360° North 116 133 9,300 360 Climbing Houston Center
04:34PM 26.6350 -97.2353 North 131 151 9,500  Climbing Houston Center
04:35PM 26.6792 -97.2339 North 156 180 9,400  Descending Houston Center
04:36PM 26.7269 -97.2297 North 163 188 9,500  Climbing Houston Center
04:37PM 26.7731 -97.2281 North 167 192 9,500  Level Houston Center
04:38PM 26.8214 -97.2261 North 169 194 9,600  Climbing Houston Center
04:39PM 26.8675 -97.2244 North 164 189 9,600 -60 Level Houston Center
04:40PM 26.9136 -97.2228 North 167 192 9,500  Descending Houston Center
04:41PM 26.9617 -97.2183 North 169 194 9,600  Climbing Houston Center
04:42PM 27.0097 -97.2164 North 173 199 9,600  Level Houston Center
04:43PM 27.0578 -97.2119 North 175 201 9,600  Level Houston Center
04:44PM 27.1081 -97.2097 North 172 198 9,600  Level Houston Center
04:45PM 27.1542 -97.2081 North 170 196 9,600  Level Houston Center
04:46PM 27.2042 -97.2036 North 175 201 9,600  Level Houston Center
04:47PM 27.2503 -97.2017 North 172 198 9,600  Level Houston Center
04:48PM 27.3006 -97.1994 North 169 194 9,600  Level Houston Center
04:49PM 27.3444 -97.1958 North 167 192 9,600  Level Houston Center
04:50PM 27.3947 -97.1936 North 170 196 9,600  Level Houston Center
04:51PM 27.4447 -97.1889 North 171 197 9,600  Level Houston Center
04:52PM 27.4950 -97.1867 North 172 198 9,600  Level Houston Center
04:53PM 27.5431 -97.1844 North 170 196 9,600  Level Houston Center
04:54PM 27.5847 -97.1811 North 171 197 9,600  Level Houston Center
04:55PM 27.6392 -97.1783 North 173 199 9,600  Level Houston Center
04:56PM 27.6936 -97.1753 North 171 197 9,600  Level Houston Center
04:57PM 27.7458 -97.1703 North 167 192 9,600  Level Houston Center
04:58PM 27.7878 -97.1692 North 168 193 9,600  Level Houston Center
04:59PM 27.8253 -97.1664 North 170 196 9,600  Level Houston Center
05:00PM 27.8714 -97.1647 North 171 197 9,600  Level Houston Center
05:01PM 27.9194 -97.1603 North 171 197 9,600  Level Houston Center
05:02PM 27.9675 -97.1583 North 174 200 9,600  Level Houston Center
05:04PM 28.0636 -97.1519 North 174 200 9,600  Level Houston Center
05:05PM 28.1097 -97.1500 North 170 196 9,600  Level Houston Center
05:06PM 28.1622 -97.1442 North 170 196 9,600  Level Houston Center
05:07PM 28.2081 -97.1433 North 169 194 9,600  Level Houston Center
05:08PM 28.2558 -97.1392 North 168 193 9,600 -60 Level Houston Center
05:09PM 28.3022 -97.1350 North 167 192 9,500 -60 Descending Houston Center
05:10PM 28.3603 -97.1331 North 171 197 9,500  Level Houston Center
05:11PM 28.4078 -97.1294 North 170 196 9,500  Level Houston Center
05:12PM 28.4536 -97.1269 North 167 192 9,500  Level Houston Center
05:13PM 28.4997 -97.1233 North 167 192 9,500  Level Houston Center
05:14PM 28.5467 -97.1208 North 167 192 9,500 -300 Level Houston Center
05:15PM 28.6033 -97.1167 North 169 194 9,000 -600 Descending Houston Center
05:16PM 28.6506 -97.1142 North 170 196 8,300 -720 Descending Houston Center
05:17PM 28.6942 -97.0942 22° Northeast 170 196 7,600 -780 Descending Houston Center
05:19PM 28.7361 -97.0686 28° Northeast 171 197 6,800 -840 Descending Houston Center
05:20PM 28.7769 -97.0436 28° Northeast 169 194 5,900 -960 Descending Houston Center
05:21PM 28.8125 -97.0086 41° Northeast 169 194 4,900 -1,020 Descending Houston Center
05:22PM 28.8533 -96.9661 42° Northeast 169 194 3,800 -780 Descending Houston Center
05:23PM 28.8903 -96.9647 North 146 168 3,400 -240 Descending Houston Center
05:24PM 28.9236 -96.9678 355° North 130 150 3,400  Level Houston Center
05:25PM 28.9619 -96.9664 North 131 151 3,400  Level Houston Center
05:26PM 29.0014 -96.9647 North 137 158 3,400  Level Houston Center
05:27PM 29.0425 -96.9639 North 143 165 3,400  Level Houston Center
05:28PM 29.0917 -96.9628 North 146 168 3,400  Level Houston Center
05:29PM 29.1325 -96.9614 North 147 169 3,500  Climbing Houston Center
05:30PM 29.1742 -96.9600 North 148 170 3,400 -60 Descending Houston Center
05:31PM 29.2153 -96.9592 North 148 170 3,400  Level Houston Center
05:32PM 29.2575 -96.9575 North 149 171 3,400  Level Houston Center
05:33PM 29.3000 -96.9567 North 150 173 3,500  Climbing Houston Center
05:34PM 29.3428 -96.9547 North 151 174 3,400 -60 Descending Houston Center
05:35PM 29.3858 -96.9539 North 151 174 3,400  Level Houston Center
05:36PM 29.4381 -96.9517 North 154 177 3,400  Level Houston Center
05:37PM 29.4825 -96.9503 North 156 180 3,400 240 Level Houston Center
05:38PM 29.5233 -96.9486 North 152 175 3,900 540 Climbing Houston Center
05:39PM 29.5597 -96.9478 North 138 159 4,600 660 Climbing Houston Center
05:40PM 29.5931 -96.9461 North 124 143 5,300 660 Climbing Houston Center
05:41PM 29.6278 -96.9453 North 124 143 6,000 720 Climbing Houston Center
05:42PM 29.6711 -96.9450 360° North 130 150 6,900 660 Climbing Houston Center
05:43PM 29.7081 -96.9436 North 133 153 7,400 240 Climbing Houston Center
05:44PM 29.7492 -96.9428 North 146 168 7,500  Climbing Houston Center
05:45PM 29.7922 -96.9406 North 152 175 7,500 60 Level Houston Center
05:46PM 29.8347 -96.9394 North 154 177 7,700 420 Climbing Houston Center
05:47PM 29.8733 -96.9381 North 141 162 8,400 720 Climbing Houston Center
05:49PM 29.9147 -96.9372 North 125 144 9,200 480 Climbing Houston Center
05:50PM 29.9517 -96.9364 North 130 150 9,500 120 Climbing Houston Center
05:51PM 29.9936 -96.9342 North 146 168 9,500  Level Houston Center
05:52PM 30.0336 -96.9339 360° North 144 166 9,500 -300 Level Houston Center
05:53PM 30.0778 -96.9319 North 156 180 9,000 -540 Descending Houston Center
05:54PM 30.1275 -96.9289 North 165 190 8,500 -540 Descending Houston Center
05:55PM 30.1739 -96.9289 360° North 165 190 8,000 -480 Descending Houston Center
05:56PM 30.2211 -96.9267 North 167 192 7,600 -240 Descending Houston Center
05:57PM 30.2725 -96.9253 North 158 182 7,600 -60 Level Houston Center
05:58PM 30.3044 -96.9247 North 147 169 7,500  Descending Houston Center
05:59PM 30.3461 -96.9225 North 149 171 7,600  Climbing Houston Center
05:59PM 30.3564 -96.9217 North 151 174 7,500 -120 Descending Houston Center
06:00PM 30.3881 -96.9206 North 149 171 7,500 60 Level Houston Center
06:00PM 30.3975 -96.9211 357° North 148 170 7,600 60 Climbing Houston Center
06:01PM 30.4319 -96.9208 360° North 149 171 7,600  Level Houston Center
06:01PM 30.4403 -96.9192 10° North 150 173 7,600 -120 Level Houston Center
06:02PM 30.4739 -96.9189 360° North 151 174 7,500  Descending Houston Center
06:02PM 30.4828 -96.9194 357° North 153 176 7,600 60 Climbing Houston Center
06:03PM 30.5156 -96.9169 North 150 173 7,600 -120 Level Houston Center
06:03PM 30.5247 -96.9161 North 150 173 7,500 -120 Descending Houston Center
06:04PM 30.5617 -96.9169 359° North 146 168 7,500  Level Houston Center
06:05PM 30.5972 -96.9156 North 146 168 7,500  Level Houston Center
06:05PM 30.6133 -96.9144 North 146 168 7,500  Level Houston Center
06:06PM 30.6369 -96.9139 North 147 169 7,500  Level Houston Center
06:06PM 30.6550 -96.9119 North 148 170 7,500  Level Houston Center
06:07PM 30.6853 -96.9136 357° North 147 169 7,500  Level Houston Center
06:07PM 30.6956 -96.9106 14° North 146 168 7,500  Level Houston Center
06:08PM 30.7247 -96.9117 358° North 149 171 7,500  Level Houston Center
06:08PM 30.7381 -96.9097 North 148 170 7,500  Level Houston Center
06:09PM 30.7794 -96.9078 North 149 171 7,500  Level Houston Center
06:10PM 30.8203 -96.9067 North 146 168 7,500  Level Houston Center
06:11PM 30.8606 -96.9047 North 144 166 7,500  Level Houston Center
06:12PM 30.9058 -96.9039 North 140 161 7,500  Level Houston Center
06:13PM 30.9447 -96.9033 North 139 160 7,500  Level Houston Center
06:14PM 30.9839 -96.9017 North 140 161 7,500  Level Houston Center
06:15PM 31.0236 -96.9008 North 141 162 7,500 -180 Level Houston Center
06:16PM 31.0628 -96.8989 North 140 161 7,200 -360 Descending Houston Center
06:17PM 31.1058 -96.8975 North 149 171 6,800 -480 Descending Houston Center
06:18PM 31.1500 -96.8956 North 154 177 6,300 -540 Descending Houston Center
06:19PM 31.2017 -96.8947 North 157 181 5,700 -360 Descending Houston Center
06:20PM 31.2461 -96.8936 North 158 182 5,600 -120 Descending Houston Center
06:22PM 31.2881 -96.8925 North 154 177 5,500 -60 Descending Houston Center
06:23PM 31.3289 -96.8911 North 149 171 5,500  Level Houston Center
06:24PM 31.3694 -96.8900 North 146 168 5,500  Level Houston Center
06:25PM 31.4086 -96.8883 North 143 165 5,500  Level Houston Center
06:26PM 31.4494 -96.8872 North 143 165 5,500  Level Houston Center
06:27PM 31.4892 -96.8858 North 143 165 5,500  Level Houston Center
06:28PM 31.5353 -96.8847 North 141 162 5,500 -180 Level Houston Center
06:30PM 31.6139 -96.8811 North  Level FlightAware Approximate
06:37PM 31.9195 -96.8670 North  Level FlightAware Approximate
06:38PM 31.9632 -96.8649 North  Level FlightAware Approximate
06:39PM 32.0068 -96.8629 North  Level FlightAware Approximate
06:40PM 32.0505 -96.8609 North  Level FlightAware Approximate
06:41PM 32.0941 -96.8588 North  Level FlightAware Approximate
06:42PM 32.1378 -96.8568 North  Level FlightAware Approximate
06:42PM 32.1500 -96.8667 North 153 176 3,600  Level Dallas / Fort Worth TRACON
06:43PM 32.1814 -96.8548 North  Level FlightAware Approximate
06:43PM 32.1833 -96.8667 360° North 155 178 3,600  Level Dallas / Fort Worth TRACON
06:44PM 32.2251 -96.8527 North  Level FlightAware Approximate
06:44PM 32.2167 -96.8667 360° North 154 177 3,600  Level Dallas / Fort Worth TRACON
06:45PM 32.2688 -96.8507 North  Level FlightAware Approximate
06:45PM 32.2667 -96.8500 16° North 155 178 3,600  Level Dallas / Fort Worth TRACON
06:46PM 32.3125 -96.8487 North  Level FlightAware Approximate
06:46PM 32.3000 -96.8500 360° North 155 178 3,600  Level Dallas / Fort Worth TRACON
06:47PM 32.3561 -96.8468 North  Level FlightAware Approximate
06:47PM 32.3500 -96.8500 360° North 151 174 3,500  Level Dallas / Fort Worth TRACON
06:48PM 32.3833 -96.8500 360° North 151 174 3,600  Climbing Dallas / Fort Worth TRACON
06:49PM 32.4333 -96.8500 360° North 151 174 3,500 -60 Descending Dallas / Fort Worth TRACON
06:50PM 32.4667 -96.8333 23° Northeast 151 174 3,500  Level Dallas / Fort Worth TRACON
06:51PM 32.5167 -96.8333 360° North 148 170 3,500  Level Dallas / Fort Worth TRACON
06:52PM 32.5500 -96.8167 23° Northeast 150 173 3,500  Level Dallas / Fort Worth TRACON
06:53PM 32.6000 -96.8000 16° North 151 174 3,500  Level Dallas / Fort Worth TRACON
06:54PM 32.6333 -96.7833 23° Northeast 152 175 3,500  Level Dallas / Fort Worth TRACON
06:55PM 32.6833 -96.7833 360° North 151 174 3,500  Level Dallas / Fort Worth TRACON
06:56PM 32.7167 -96.7833 360° North 150 173 3,500  Level Dallas / Fort Worth TRACON
06:57PM 32.7667 -96.7833 360° North 150 173 3,500  Level Dallas / Fort Worth TRACON
06:58PM 32.8000 -96.7667 23° Northeast 142 163 3,500  Level Dallas / Fort Worth TRACON
06:59PM 32.8333 -96.7833 337° Northwest 124 143 3,500 -480 Level Dallas / Fort Worth TRACON
07:00PM 32.8833 -96.8000 344° North 151 174 2,600 -900 Descending Dallas / Fort Worth TRACON
07:01PM 32.9167 -96.8167 337° Northwest 132 152 1,700 -840 Descending Dallas / Fort Worth TRACON
07:02PM 32.9500 -96.8167 360° North 105 121 1,000 -720 Descending Dallas / Fort Worth TRACON
07:04PM 32.9667 -96.8333 North  Level FlightAware Approximate
07:11PM 32.9686 -96.8364 North  Level Estimated
07:12PM 32.9667 -96.8333 North  Level FlightAware Approximate
07:13PM 32.9686 -96.8364 North  Level Estimated
07:14PM 32.9667 -96.8333 North  Level FlightAware Approximate
07:15PM 32.9686 -96.8364 North  Level Estimated
07:16PM 32.9667 -96.8333 North  Level FlightAware Approximate
07:17PM 32.9686 -96.8364 North  Level Estimated
07:18PM 32.9667 -96.8333 North  Level FlightAware Approximate
07:19PM 32.9686 -96.8364 North  Level Estimated
07:20PM 32.9667 -96.8333 North  Level FlightAware Approximate
07:21PM 32.9686 -96.8364 North  Level Estimated
07:22PM 32.9667 -96.8333 North  Level FlightAware Approximate
07:23PM 32.9686 -96.8364 North  Level Estimated
07:24PM 32.9667 -96.8333 North  Level FlightAware Approximate
07:25PM 32.9686 -96.8364 North  Level Estimated
07:26PM 32.9667 -96.8333 North  Level FlightAware Approximate
07:27PM 32.9686 -96.8364 North  Level Estimated